Time;durP1;ratioP1;P1;durP2;ratioP2;P2;SDS_P1;SDS_P2;PMS_P1;PMS_P2;Temp;Humidity;BMP_temperature;BMP_pressure;BME280_temperature;BME280_humidity;BME280_pressure;Samples;Min_cycle;Max_cycle;Signal;HPM_P1;HPM_P2
2024/01/18 00:02:11;;;;;;;93.97;40.03;;;1.90;99.90;;;;;;4440132;28;658564;-76
2024/01/18 00:04:58;;;;;;;85.67;34.87;;;1.90;99.90;;;;;;4440953;28;657738;-76
2024/01/18 00:07:45;;;;;;;116.87;50.37;;;2.00;99.90;;;;;;4453678;28;657861;-76
2024/01/18 00:10:33;;;;;;;97.33;42.33;;;1.90;99.90;;;;;;4435387;28;658673;-76
2024/01/18 00:13:20;;;;;;;157.70;66.43;;;1.90;99.90;;;;;;4443676;28;658151;-76
2024/01/18 00:16:09;;;;;;;118.97;49.80;;;1.90;99.90;;;;;;4448990;28;658548;-76
2024/01/18 00:18:56;;;;;;;215.70;56.93;;;1.80;99.90;;;;;;4445533;28;658615;-76
2024/01/18 00:21:43;;;;;;;129.37;55.83;;;1.80;99.90;;;;;;4441750;28;658655;-76
2024/01/18 00:24:31;;;;;;;96.60;41.57;;;2.00;99.90;;;;;;4447847;28;658966;-76
2024/01/18 00:27:18;;;;;;;65.03;30.27;;;2.00;99.90;;;;;;4423691;28;657453;-76
2024/01/18 00:30:06;;;;;;;89.30;39.43;;;2.10;99.90;;;;;;4432113;28;657943;-77
2024/01/18 00:32:54;;;;;;;77.43;34.13;;;2.00;99.90;;;;;;4429513;28;658220;-76
2024/01/18 00:35:42;;;;;;;69.40;30.93;;;2.00;99.90;;;;;;4448485;28;657371;-76
2024/01/18 00:38:29;;;;;;;44.40;20.80;;;2.10;99.90;;;;;;4432335;27;657906;-76
2024/01/18 00:41:16;;;;;;;110.80;48.23;;;2.00;99.90;;;;;;4460604;28;657275;-76
2024/01/18 00:44:03;;;;;;;93.47;39.90;;;2.00;99.90;;;;;;4428277;28;658330;-76
2024/01/18 00:46:52;;;;;;;65.00;29.63;;;1.90;99.90;;;;;;4452098;27;658475;-77
2024/01/18 00:49:42;;;;;;;73.10;31.37;;;1.90;99.90;;;;;;4428943;28;658365;-76
2024/01/18 00:52:30;;;;;;;91.75;41.10;;;2.00;99.90;;;;;;4422956;28;658109;-76
2024/01/18 00:55:17;;;;;;;87.30;38.77;;;2.10;99.90;;;;;;4431359;28;657860;-75
2024/01/18 00:58:05;;;;;;;80.77;35.20;;;2.00;99.90;;;;;;4456946;28;659109;-76
2024/01/18 01:00:52;;;;;;;71.07;29.80;;;2.10;99.90;;;;;;4448289;28;657290;-77
2024/01/18 01:03:39;;;;;;;54.23;24.17;;;2.10;99.90;;;;;;4448192;28;657795;-77
2024/01/18 01:06:28;;;;;;;75.20;34.03;;;2.20;99.90;;;;;;4454320;28;658369;-77
2024/01/18 01:09:15;;;;;;;110.70;46.57;;;2.20;99.90;;;;;;4421035;28;657579;-76
2024/01/18 01:12:03;;;;;;;88.38;41.15;;;2.20;99.90;;;;;;4409500;28;658718;-76
2024/01/18 01:14:50;;;;;;;110.27;47.80;;;2.20;99.90;;;;;;4453333;28;658331;-75
2024/01/18 01:17:37;;;;;;;94.53;45.20;;;2.20;99.90;;;;;;4449258;28;658432;-76
2024/01/18 01:20:25;;;;;;;94.67;41.97;;;2.30;99.90;;;;;;4445729;28;657802;-77
2024/01/18 01:23:13;;;;;;;104.07;44.83;;;2.20;99.90;;;;;;4467684;27;656923;-76
2024/01/18 01:26:01;;;;;;;80.13;36.00;;;2.30;99.90;;;;;;4423363;28;659095;-77
2024/01/18 01:28:49;;;;;;;72.10;33.13;;;2.30;99.90;;;;;;4422820;27;657655;-76
2024/01/18 01:31:36;;;;;;;91.33;41.87;;;2.20;99.90;;;;;;4448069;28;658144;-77
2024/01/18 01:34:23;;;;;;;111.80;50.37;;;2.30;99.90;;;;;;4437909;28;657540;-76
2024/01/18 01:37:11;;;;;;;78.83;35.37;;;2.30;99.90;;;;;;4439807;28;658599;-77
2024/01/18 01:39:59;;;;;;;62.33;28.67;;;2.30;99.90;;;;;;4436011;28;657529;-76
2024/01/18 01:42:46;;;;;;;70.37;34.13;;;2.30;99.90;;;;;;4448512;28;657289;-77
2024/01/18 01:45:34;;;;;;;47.80;22.47;;;2.30;99.90;;;;;;4425191;27;657663;-76
2024/01/18 01:48:21;;;;;;;42.27;20.03;;;2.40;99.90;;;;;;4462702;28;657327;-77
2024/01/18 01:51:09;;;;;;;63.07;29.93;;;2.40;99.90;;;;;;4439449;28;657747;-76
2024/01/18 01:53:56;;;;;;;48.00;23.93;;;2.60;99.90;;;;;;4447106;28;657339;-77
2024/01/18 01:56:45;;;;;;;38.87;19.70;;;2.60;99.90;;;;;;4442784;28;657766;-76
2024/01/18 01:59:32;;;;;;;53.00;24.20;;;2.70;99.90;;;;;;4434173;28;657817;-76
2024/01/18 02:02:20;;;;;;;44.93;21.30;;;2.70;99.90;;;;;;4465191;28;657808;-77
2024/01/18 02:05:07;;;;;;;50.33;22.45;;;2.70;99.90;;;;;;4437141;28;657237;-76
2024/01/18 02:07:55;;;;;;;86.13;35.50;;;2.60;99.90;;;;;;4456370;28;658277;-77
2024/01/18 02:10:43;;;;;;;63.60;28.53;;;2.70;99.90;;;;;;4418808;28;658117;-76
2024/01/18 02:13:31;;;;;;;64.83;29.97;;;2.70;99.90;;;;;;4444177;28;657982;-77
2024/01/18 02:16:18;;;;;;;35.27;15.77;;;2.70;99.90;;;;;;4436203;28;657579;-77
2024/01/18 02:19:06;;;;;;;61.73;26.40;;;2.80;99.90;;;;;;4447270;28;657664;-77
2024/01/18 02:21:53;;;;;;;73.37;29.53;;;2.80;99.90;;;;;;4424272;28;658419;-75
2024/01/18 02:24:42;;;;;;;47.03;21.03;;;2.80;99.90;;;;;;4457555;28;657504;-76
2024/01/18 02:27:30;;;;;;;36.77;18.07;;;2.80;99.90;;;;;;4443681;27;659287;-77
2024/01/18 02:30:17;;;;;;;76.30;36.27;;;2.70;99.90;;;;;;4423381;28;657858;-76
2024/01/18 02:33:05;;;;;;;74.40;33.47;;;2.50;99.90;;;;;;4446103;28;657700;-77
2024/01/18 02:35:52;;;;;;;50.80;25.13;;;2.50;99.90;;;;;;4432249;28;657291;-76
2024/01/18 02:38:40;;;;;;;61.33;28.83;;;2.60;99.90;;;;;;4445151;27;658133;-77
2024/01/18 02:41:27;;;;;;;33.80;17.47;;;2.80;99.90;;;;;;4456104;28;657300;-77
2024/01/18 02:44:15;;;;;;;31.97;16.93;;;2.90;99.90;;;;;;4421030;27;658437;-77
2024/01/18 02:47:03;;;;;;;24.83;12.80;;;3.30;99.90;;;;;;4439536;28;660754;-77
2024/01/18 02:49:50;;;;;;;41.07;20.27;;;3.50;99.90;;;;;;4452525;28;660174;-78
2024/01/18 02:52:39;;;;;;;18.87;7.43;;;3.80;99.90;;;;;;4443006;27;657158;-77
2024/01/18 02:55:26;;;;;;;8.87;4.27;;;3.80;99.90;;;;;;4452348;28;656821;-77
2024/01/18 02:58:13;;;;;;;11.33;6.03;;;4.30;99.90;;;;;;4438530;28;655524;-78
2024/01/18 03:01:02;;;;;;;13.73;5.67;;;4.90;99.90;;;;;;4460140;27;656448;-78
2024/01/18 03:03:49;;;;;;;12.00;6.73;;;4.80;99.90;;;;;;4434306;28;658624;-79
2024/01/18 03:06:36;;;;;;;11.57;5.67;;;4.80;99.90;;;;;;4448233;28;656019;-77
2024/01/18 03:09:23;;;;;;;7.50;4.53;;;4.70;99.90;;;;;;4442124;27;656767;-78
2024/01/18 03:12:11;;;;;;;145.68;47.30;;;4.70;99.90;;;;;;4465687;27;655718;-78
2024/01/18 03:14:58;;;;;;;91.20;33.87;;;4.70;99.90;;;;;;4432145;28;658752;-76
2024/01/18 03:17:46;;;;;;;24.13;10.30;;;4.70;99.90;;;;;;4442552;27;658458;-78
2024/01/18 03:20:34;;;;;;;6.77;3.80;;;4.80;99.90;;;;;;4433048;28;657337;-79
2024/01/18 03:23:21;;;;;;;5.77;3.57;;;4.90;99.90;;;;;;4464696;28;655498;-78
2024/01/18 03:26:08;;;;;;;7.93;3.47;;;5.20;99.90;;;;;;4436639;27;655766;-78
2024/01/18 03:28:56;;;;;;;10.10;5.07;;;5.20;99.90;;;;;;4453831;28;656468;-78
2024/01/18 03:31:43;;;;;;;1.93;1.13;;;5.30;99.90;;;;;;4428155;28;656628;-77
2024/01/18 03:34:32;;;;;;;8.57;4.37;;;5.50;99.90;;;;;;4448612;28;655850;-78
2024/01/18 03:37:19;;;;;;;8.07;4.47;;;5.60;99.90;;;;;;4439110;27;656028;-79
2024/01/18 03:40:08;;;;;;;7.87;4.10;;;5.40;99.90;;;;;;4450888;28;655345;-79
2024/01/18 03:42:55;;;;;;;9.47;4.83;;;5.20;99.90;;;;;;4417102;28;655965;-79
2024/01/18 03:45:43;;;;;;;7.60;3.97;;;5.10;99.90;;;;;;4429928;27;655464;-77
2024/01/18 03:48:30;;;;;;;7.33;3.90;;;5.10;99.90;;;;;;4456478;28;655499;-79
2024/01/18 03:51:19;;;;;;;5.87;3.67;;;5.10;99.90;;;;;;4445377;28;655926;-76
2024/01/18 03:54:06;;;;;;;8.67;4.03;;;5.10;99.90;;;;;;4460944;28;655983;-79
2024/01/18 03:56:53;;;;;;;8.70;4.17;;;4.90;99.90;;;;;;4426127;28;656114;-78
2024/01/18 03:59:40;;;;;;;5.67;3.47;;;5.10;99.90;;;;;;4450010;28;656408;-78
2024/01/18 04:02:27;;;;;;;10.57;5.18;;;5.20;99.90;;;;;;4432356;28;655913;-77
2024/01/18 04:05:15;;;;;;;6.00;3.80;;;5.00;99.90;;;;;;4455437;28;656673;-79
2024/01/18 04:08:03;;;;;;;5.90;3.70;;;5.00;99.90;;;;;;4451473;28;655309;-79
2024/01/18 04:10:51;;;;;;;5.13;3.03;;;5.00;99.90;;;;;;4442052;28;656017;-78
2024/01/18 04:13:38;;;;;;;5.80;3.00;;;5.20;99.90;;;;;;4448014;28;655770;-78
2024/01/18 04:16:25;;;;;;;6.13;3.33;;;5.20;99.90;;;;;;4462693;28;655790;-79
2024/01/18 04:19:13;;;;;;;4.77;2.97;;;5.30;99.90;;;;;;4446554;28;656040;-76
2024/01/18 04:22:00;;;;;;;5.07;3.00;;;5.40;99.90;;;;;;4461867;28;656066;-78
2024/01/18 04:24:49;;;;;;;4.73;3.07;;;5.90;99.90;;;;;;4461357;28;655476;-76
2024/01/18 04:27:36;;;;;;;4.83;2.90;;;5.90;99.90;;;;;;4460356;28;655658;-78
2024/01/18 04:30:23;;;;;;;6.13;3.07;;;5.80;99.90;;;;;;4430320;28;656069;-79
2024/01/18 04:33:10;;;;;;;6.67;3.70;;;5.80;99.90;;;;;;4452531;28;655819;-79
2024/01/18 04:35:57;;;;;;;5.27;3.40;;;5.80;99.90;;;;;;4436758;28;655399;-77
2024/01/18 04:38:45;;;;;;;4.37;3.17;;;5.70;99.90;;;;;;4470714;28;655657;-79
2024/01/18 04:41:33;;;;;;;5.20;3.70;;;5.40;99.90;;;;;;4444060;28;655307;-79
2024/01/18 04:44:20;;;;;;;7.17;4.23;;;5.20;99.90;;;;;;4423443;28;655578;-79
2024/01/18 04:47:08;;;;;;;5.80;3.63;;;5.20;99.90;;;;;;4438248;28;656217;-77
2024/01/18 04:49:55;;;;;;;6.77;4.27;;;5.40;99.90;;;;;;4442400;28;656271;-75
2024/01/18 04:52:42;;;;;;;8.50;4.47;;;5.30;99.90;;;;;;4440575;28;659835;-77
2024/01/18 04:55:31;;;;;;;6.27;4.10;;;5.20;99.90;;;;;;4454011;28;656617;-78
2024/01/18 04:58:19;;;;;;;7.10;4.57;;;4.90;99.90;;;;;;4432841;28;655735;-79
2024/01/18 05:01:06;;;;;;;10.43;6.90;;;4.70;99.90;;;;;;4452795;28;655130;-81
2024/01/18 05:03:54;;;;;;;12.37;5.40;;;4.70;99.90;;;;;;4425624;28;656761;-80
2024/01/18 05:06:41;;;;;;;11.87;5.67;;;4.50;99.90;;;;;;4456010;28;657049;-78
2024/01/18 05:09:28;;;;;;;8.33;5.40;;;4.60;99.90;;;;;;4434098;28;656291;-77
2024/01/18 05:12:15;;;;;;;9.03;5.70;;;4.70;99.90;;;;;;4460260;28;656579;-78
2024/01/18 05:15:05;;;;;;;11.67;7.23;;;4.60;99.90;;;;;;4435772;28;655696;-78
2024/01/18 05:17:54;;;;;;;12.93;7.13;;;4.70;99.90;;;;;;4462319;28;656864;-77
2024/01/18 05:20:41;;;;;;;16.97;10.20;;;4.50;99.90;;;;;;4432875;28;657848;-78
2024/01/18 05:23:28;;;;;;;21.97;13.07;;;4.50;99.90;;;;;;4440424;27;657740;-79
2024/01/18 05:26:15;;;;;;;20.93;12.10;;;4.30;99.90;;;;;;4447466;28;657898;-78
2024/01/18 05:29:02;;;;;;;23.60;13.90;;;4.40;99.90;;;;;;4432933;28;657297;-81
2024/01/18 05:31:51;;;;;;;20.47;12.80;;;4.30;99.90;;;;;;4458673;28;657623;-77
2024/01/18 05:34:40;;;;;;;28.30;13.83;;;4.10;99.90;;;;;;4426274;28;657556;-80
2024/01/18 05:37:27;;;;;;;70.80;17.47;;;4.00;99.90;;;;;;4449693;27;657354;-76
2024/01/18 05:40:15;;;;;;;55.07;14.90;;;3.90;99.90;;;;;;4460741;28;657261;-77
2024/01/18 05:43:02;;;;;;;52.67;13.97;;;4.00;99.90;;;;;;4453354;27;657787;-78
2024/01/18 05:45:50;;;;;;;49.30;13.63;;;4.00;99.90;;;;;;4444864;28;657713;-78
2024/01/18 05:48:38;;;;;;;25.70;11.87;;;3.80;99.90;;;;;;4463405;28;656548;-78
2024/01/18 05:51:25;;;;;;;26.33;11.47;;;3.80;99.90;;;;;;4426761;28;658634;-78
2024/01/18 05:54:12;;;;;;;31.45;11.48;;;3.70;99.90;;;;;;4430033;27;657403;-76
2024/01/18 05:57:01;;;;;;;23.03;10.43;;;3.80;99.90;;;;;;4443294;28;659021;-79
2024/01/18 05:59:48;;;;;;;32.53;13.57;;;3.80;99.90;;;;;;4435719;28;657530;-78
2024/01/18 06:02:36;;;;;;;39.80;16.70;;;3.70;99.90;;;;;;4446322;28;658149;-78
2024/01/18 06:05:25;;;;;;;157.60;20.07;;;3.70;99.90;;;;;;4442267;28;658551;-81
2024/01/18 06:08:12;;;;;;;51.00;24.27;;;3.70;99.90;;;;;;4456821;28;658853;-77
2024/01/18 06:11:00;;;;;;;44.80;18.77;;;3.80;99.90;;;;;;4454386;28;657884;-78
2024/01/18 06:13:47;;;;;;;41.30;17.67;;;3.80;99.90;;;;;;4456439;28;657881;-79
2024/01/18 06:16:34;;;;;;;43.13;14.43;;;3.80;99.90;;;;;;4427746;28;658769;-77
2024/01/18 06:19:21;;;;;;;37.93;16.33;;;3.80;99.90;;;;;;4450277;28;657523;-80
2024/01/18 06:22:10;;;;;;;58.40;13.90;;;3.70;99.90;;;;;;4442427;27;658280;-80
2024/01/18 06:24:57;;;;;;;27.87;14.57;;;3.70;99.90;;;;;;4449133;28;657953;-79
2024/01/18 06:27:44;;;;;;;23.40;11.73;;;3.60;99.90;;;;;;4452120;27;658739;-78
2024/01/18 06:30:32;;;;;;;36.60;13.00;;;3.50;99.90;;;;;;4460771;27;657703;-80
2024/01/18 06:33:19;;;;;;;61.20;14.67;;;3.60;99.90;;;;;;4426807;28;658109;-80
2024/01/18 06:36:08;;;;;;;30.23;15.20;;;3.60;99.90;;;;;;4439578;28;657645;-77
2024/01/18 06:38:57;;;;;;;27.90;14.07;;;3.60;99.90;;;;;;4433892;28;658943;-79
2024/01/18 06:41:44;;;;;;;69.80;15.87;;;3.70;99.90;;;;;;4419053;28;657665;-78
2024/01/18 06:44:31;;;;;;;82.10;15.23;;;3.90;99.90;;;;;;4452811;28;657308;-79
2024/01/18 06:47:18;;;;;;;29.83;18.87;;;3.70;99.90;;;;;;4432968;28;657631;-78
2024/01/18 06:50:06;;;;;;;72.43;17.20;;;3.70;99.90;;;;;;4453203;28;658373;-79
2024/01/18 06:52:53;;;;;;;34.25;19.20;;;3.70;99.90;;;;;;4438929;28;657873;-79
2024/01/18 06:55:42;;;;;;;26.53;16.00;;;4.00;99.90;;;;;;4446635;28;657583;-79
2024/01/18 06:58:29;;;;;;;29.70;17.20;;;4.30;99.90;;;;;;4425960;28;658361;-77
2024/01/18 07:01:17;;;;;;;30.90;16.63;;;4.50;99.90;;;;;;4450680;28;657278;-77
2024/01/18 07:04:04;;;;;;;34.20;20.20;;;4.60;99.90;;;;;;4427722;28;657295;-77
2024/01/18 07:06:51;;;;;;;30.73;17.43;;;4.50;99.90;;;;;;4452075;27;657883;-77
2024/01/18 07:09:38;;;;;;;29.93;16.50;;;4.60;99.90;;;;;;4422176;28;657624;-77
2024/01/18 07:12:27;;;;;;;27.57;14.60;;;4.70;99.90;;;;;;4443509;28;658783;-77
2024/01/18 07:15:14;;;;;;;34.20;17.03;;;4.50;99.90;;;;;;4426761;27;658197;-76
2024/01/18 07:18:01;;;;;;;22.47;10.87;;;4.50;99.90;;;;;;4441280;28;657629;-77
2024/01/18 07:20:48;;;;;;;31.87;16.87;;;4.80;99.90;;;;;;4415824;28;658153;-80
2024/01/18 07:23:36;;;;;;;30.77;16.20;;;4.60;99.90;;;;;;4455273;27;657978;-77
2024/01/18 07:26:23;;;;;;;30.27;15.87;;;4.70;99.90;;;;;;4431149;28;657500;-78
2024/01/18 07:29:11;;;;;;;29.37;15.03;;;4.70;99.90;;;;;;4443444;28;657785;-77
2024/01/18 07:31:58;;;;;;;29.23;15.83;;;4.50;99.90;;;;;;4432888;28;657450;-78
2024/01/18 07:34:46;;;;;;;31.40;16.57;;;4.60;99.90;;;;;;4455988;28;657738;-76
2024/01/18 07:37:33;;;;;;;31.83;17.83;;;4.70;99.90;;;;;;4431456;28;657377;-76
2024/01/18 07:40:20;;;;;;;38.77;18.77;;;4.90;99.90;;;;;;4452477;28;657923;-76
2024/01/18 07:43:07;;;;;;;54.13;24.90;;;4.90;99.90;;;;;;4421137;28;657961;-75
2024/01/18 07:45:57;;;;;;;31.33;16.53;;;4.90;99.90;;;;;;4448072;28;658032;-77
2024/01/18 07:48:44;;;;;;;40.90;20.90;;;4.90;99.90;;;;;;4423235;28;657931;-76
2024/01/18 07:51:31;;;;;;;36.60;18.03;;;4.90;99.90;;;;;;4444790;28;657962;-77
2024/01/18 07:54:19;;;;;;;47.13;22.47;;;4.90;99.90;;;;;;4430552;28;658140;-75
2024/01/18 07:57:06;;;;;;;53.63;23.53;;;4.90;99.90;;;;;;4456741;28;657545;-77
2024/01/18 07:59:53;;;;;;;51.50;25.37;;;4.90;99.90;;;;;;4440118;28;658064;-76
2024/01/18 08:02:42;;;;;;;47.83;20.73;;;4.90;99.90;;;;;;4456401;28;658005;-76
2024/01/18 08:05:29;;;;;;;56.80;23.73;;;4.80;99.90;;;;;;4434821;28;657654;-77
2024/01/18 08:08:16;;;;;;;49.67;22.37;;;4.90;99.90;;;;;;4450137;28;657996;-76
2024/01/18 08:11:03;;;;;;;44.73;20.30;;;4.80;99.90;;;;;;4427399;28;657927;-76
2024/01/18 08:13:51;;;;;;;52.90;23.60;;;4.90;99.90;;;;;;4450826;28;657249;-76
2024/01/18 08:16:38;;;;;;;53.22;23.40;;;4.80;99.90;;;;;;4431070;28;657518;-77
2024/01/18 08:19:27;;;;;;;47.83;20.83;;;4.90;99.90;;;;;;4448254;28;657897;-76
2024/01/18 08:22:15;;;;;;;41.97;21.13;;;4.80;99.90;;;;;;4426020;28;658621;-76
2024/01/18 08:25:02;;;;;;;47.37;21.33;;;4.80;99.90;;;;;;4424739;28;658008;-75
2024/01/18 08:27:53;;;;;;;52.30;25.13;;;4.80;99.90;;;;;;4442167;28;659099;-76
2024/01/18 08:30:40;;;;;;;50.03;23.07;;;4.80;99.90;;;;;;4428336;28;658683;-76
2024/01/18 08:33:28;;;;;;;47.17;23.17;;;4.80;99.90;;;;;;4441651;28;657490;-76
2024/01/18 08:36:16;;;;;;;46.27;22.97;;;4.80;99.90;;;;;;4448385;28;658297;-76
2024/01/18 08:39:03;;;;;;;31.00;15.35;;;4.70;99.90;;;;;;4437641;28;657530;-73
2024/01/18 08:41:51;;;;;;;51.70;23.97;;;4.70;99.90;;;;;;4452810;28;657435;-76
2024/01/18 08:44:44;;;;;;;57.43;28.03;;;4.70;99.90;;;;;;4431881;28;657471;-76
2024/01/18 08:47:32;;;;;;;57.27;26.33;;;4.60;99.90;;;;;;4430834;28;657748;-77
2024/01/18 08:50:20;;;;;;;46.43;19.87;;;4.60;99.90;;;;;;4431534;28;659055;-76
2024/01/18 08:53:09;;;;;;;55.77;24.90;;;4.60;99.90;;;;;;4436851;28;657648;-74
2024/01/18 08:55:56;;;;;;;58.33;25.37;;;4.50;99.90;;;;;;4449515;28;657937;-76
2024/01/18 08:58:43;;;;;;;62.87;27.70;;;4.50;99.90;;;;;;4430892;28;657789;-74
2024/01/18 09:01:30;;;;;;;57.87;24.77;;;4.40;99.90;;;;;;4463605;28;657854;-76
2024/01/18 09:04:18;;;;;;;61.40;26.35;;;4.50;99.90;;;;;;4431326;28;658265;-74
2024/01/18 09:07:05;;;;;;;55.23;24.53;;;4.50;99.90;;;;;;4450896;27;658423;-77
2024/01/18 09:09:54;;;;;;;52.67;23.43;;;4.50;99.90;;;;;;4445388;27;657407;-74
2024/01/18 09:12:41;;;;;;;51.33;23.60;;;4.50;99.90;;;;;;4462953;28;657823;-75
2024/01/18 09:15:29;;;;;;;43.17;21.20;;;4.50;99.90;;;;;;4438901;28;657671;-73
2024/01/18 09:18:16;;;;;;;37.77;16.73;;;4.40;99.90;;;;;;4447861;28;657543;-73
2024/01/18 09:21:04;;;;;;;43.53;22.30;;;4.40;99.90;;;;;;4431317;27;658230;-74
2024/01/18 09:23:51;;;;;;;49.60;23.50;;;4.30;99.90;;;;;;4456729;27;657723;-75
2024/01/18 09:26:39;;;;;;;51.13;24.30;;;4.30;99.90;;;;;;4433677;28;658568;-75
2024/01/18 09:29:26;;;;;;;59.75;29.02;;;4.20;99.90;;;;;;4448234;28;657951;-75
2024/01/18 09:32:15;;;;;;;29.63;12.93;;;4.10;99.90;;;;;;4423727;28;658646;-75
2024/01/18 09:35:05;;;;;;;63.33;29.07;;;4.00;99.90;;;;;;4449415;28;657536;-76
2024/01/18 09:37:52;;;;;;;67.57;28.77;;;4.00;99.90;;;;;;4445859;28;657801;-74
2024/01/18 09:40:40;;;;;;;79.10;34.20;;;3.90;99.90;;;;;;4460849;28;657730;-75
2024/01/18 09:43:29;;;;;;;90.87;37.93;;;3.80;99.90;;;;;;4441063;28;657683;-74
2024/01/18 09:46:16;;;;;;;89.50;34.17;;;3.80;99.90;;;;;;4459892;28;658099;-76
2024/01/18 09:49:03;;;;;;;88.30;37.17;;;3.70;99.90;;;;;;4439395;28;657693;-76
2024/01/18 09:51:51;;;;;;;73.87;29.57;;;3.70;99.90;;;;;;4455465;28;658039;-77
2024/01/18 09:54:38;;;;;;;88.87;34.27;;;3.70;99.90;;;;;;4435682;28;657850;-75
2024/01/18 09:57:30;;;;;;;81.63;33.77;;;3.60;99.90;;;;;;4463296;28;657929;-75
2024/01/18 10:00:19;;;;;;;91.20;38.63;;;3.70;99.90;;;;;;4429973;28;657318;-76
2024/01/18 10:03:06;;;;;;;110.83;38.53;;;3.60;99.90;;;;;;4440531;28;657505;-76
2024/01/18 10:05:53;;;;;;;125.00;37.37;;;3.50;99.90;;;;;;4430739;28;658966;-74
2024/01/18 10:08:40;;;;;;;120.83;35.17;;;3.50;99.90;;;;;;4453041;28;658547;-75
2024/01/18 10:11:27;;;;;;;95.10;33.58;;;3.30;99.90;;;;;;4435658;28;659617;-75
2024/01/18 10:14:15;;;;;;;80.87;28.37;;;3.40;99.90;;;;;;4453993;27;657540;-78
2024/01/18 10:17:04;;;;;;;77.87;29.00;;;3.50;99.90;;;;;;4433436;28;657989;-76
2024/01/18 10:19:52;;;;;;;69.43;24.57;;;3.40;99.90;;;;;;4454269;28;657363;-75
2024/01/18 10:22:39;;;;;;;68.57;25.27;;;3.40;99.90;;;;;;4424091;28;657709;-75
2024/01/18 10:25:26;;;;;;;68.73;24.37;;;3.40;99.90;;;;;;4447224;28;658264;-76
2024/01/18 10:28:14;;;;;;;53.23;18.60;;;3.40;99.90;;;;;;4437121;27;658602;-75
2024/01/18 10:31:02;;;;;;;55.10;20.40;;;3.40;99.90;;;;;;4460454;27;657168;-75
2024/01/18 10:33:51;;;;;;;57.80;22.53;;;3.30;99.90;;;;;;4435248;28;658312;-76
2024/01/18 10:36:38;;;;;;;50.30;19.43;;;3.30;99.90;;;;;;4425765;28;657637;-76
2024/01/18 10:39:25;;;;;;;49.47;19.30;;;3.40;99.90;;;;;;4448354;27;658915;-77
2024/01/18 10:42:13;;;;;;;54.07;18.90;;;3.30;99.90;;;;;;4439479;28;658135;-77
2024/01/18 10:45:01;;;;;;;60.67;21.00;;;3.20;99.90;;;;;;4457902;28;657642;-76
2024/01/18 10:47:48;;;;;;;40.13;15.47;;;3.10;99.90;;;;;;4440050;28;658140;-76
2024/01/18 10:50:36;;;;;;;31.33;13.00;;;3.20;99.90;;;;;;4457180;28;657504;-75
2024/01/18 10:53:24;;;;;;;32.73;16.37;;;3.20;99.90;;;;;;4420825;28;658032;-76
2024/01/18 10:56:12;;;;;;;37.57;15.77;;;3.20;99.90;;;;;;4455855;28;657351;-74
2024/01/18 10:58:59;;;;;;;40.83;15.97;;;3.20;99.90;;;;;;4432028;27;657984;-77
2024/01/18 11:01:46;;;;;;;43.90;18.70;;;3.10;99.90;;;;;;4457741;28;657432;-77
2024/01/18 11:04:34;;;;;;;57.80;21.03;;;3.10;99.90;;;;;;4427170;28;657890;-77
2024/01/18 11:07:22;;;;;;;47.97;20.77;;;3.10;99.90;;;;;;4453092;28;658009;-78
2024/01/18 11:10:11;;;;;;;60.35;23.13;;;3.00;99.90;;;;;;4434117;28;657978;-76
2024/01/18 11:12:59;;;;;;;41.65;14.80;;;3.10;99.90;;;;;;4435852;28;657707;-76
2024/01/18 11:15:47;;;;;;;63.80;25.07;;;2.90;99.90;;;;;;4459492;28;657830;-78
2024/01/18 11:18:35;;;;;;;56.67;23.97;;;2.90;99.90;;;;;;4433842;28;658352;-77
2024/01/18 11:21:27;;;;;;;45.07;17.63;;;2.90;99.90;;;;;;4431452;28;657532;-74
2024/01/18 11:24:16;;;;;;;46.30;20.23;;;3.00;99.90;;;;;;4420328;28;658475;-77
2024/01/18 11:27:17;;;;;;;46.23;20.40;;;2.90;99.90;;;;;;4425353;28;658900;-76
2024/01/18 11:30:05;;;;;;;52.17;19.90;;;2.90;99.90;;;;;;4424591;28;658004;-76
2024/01/18 11:32:54;;;;;;;12.10;5.93;;;2.90;99.90;;;;;;4432998;28;658261;-75
2024/01/18 11:35:42;;;;;;;46.70;20.33;;;2.80;99.90;;;;;;4452789;28;656887;-77
2024/01/18 11:38:32;;;;;;;51.87;20.77;;;2.70;99.90;;;;;;4431140;28;658606;-78
2024/01/18 11:41:26;;;;;;;47.97;19.70;;;2.70;99.90;;;;;;4431912;28;657631;-77
2024/01/18 11:44:13;;;;;;;41.20;18.67;;;2.60;99.90;;;;;;4433012;28;657516;-77
2024/01/18 11:47:03;;;;;;;42.73;18.20;;;2.60;99.90;;;;;;4443624;28;657440;-77
2024/01/18 11:49:50;;;;;;;44.90;19.13;;;2.60;99.90;;;;;;4429930;28;658496;-77
2024/01/18 11:52:38;;;;;;;47.23;18.63;;;2.60;99.90;;;;;;4454780;28;657758;-77
2024/01/18 11:55:25;;;;;;;41.13;18.13;;;2.60;99.90;;;;;;4460513;28;659169;-78
2024/01/18 11:58:14;;;;;;;37.73;17.87;;;2.60;99.90;;;;;;4428915;28;658356;-75
2024/01/18 12:01:02;;;;;;;35.47;16.67;;;2.60;99.90;;;;;;4456711;28;657710;-78
2024/01/18 12:03:49;;;;;;;37.50;17.53;;;2.60;99.90;;;;;;4439434;28;657843;-77
2024/01/18 12:06:36;;;;;;;40.40;18.17;;;2.60;99.90;;;;;;4443332;28;657596;-77
2024/01/18 12:09:23;;;;;;;44.23;18.67;;;2.60;99.90;;;;;;4424659;28;658139;-77
2024/01/18 12:12:10;;;;;;;42.03;19.27;;;2.60;99.90;;;;;;4454024;28;658218;-78
2024/01/18 12:14:59;;;;;;;48.33;19.60;;;2.60;99.90;;;;;;4427698;28;657685;-75
2024/01/18 12:17:46;;;;;;;46.03;17.70;;;2.50;99.90;;;;;;4444896;28;658069;-77
2024/01/18 12:20:36;;;;;;;47.83;18.33;;;2.50;99.90;;;;;;4428729;28;658654;-77
2024/01/18 12:23:23;;;;;;;50.47;20.30;;;2.60;99.90;;;;;;4438317;28;657873;-77
2024/01/18 12:26:10;;;;;;;44.33;18.73;;;2.60;99.90;;;;;;4448361;28;658373;-76
2024/01/18 12:28:57;;;;;;;52.13;21.40;;;2.60;99.90;;;;;;4421064;28;657303;-75
2024/01/18 12:31:47;;;;;;;53.20;21.80;;;2.60;99.90;;;;;;4462338;28;659075;-78
2024/01/18 12:34:34;;;;;;;55.97;23.90;;;2.60;99.90;;;;;;4435863;28;658489;-77
2024/01/18 12:37:22;;;;;;;55.73;22.90;;;2.60;99.90;;;;;;4459279;27;658100;-77
2024/01/18 12:40:10;;;;;;;57.10;23.80;;;2.60;99.90;;;;;;4435039;28;658278;-77
2024/01/18 12:43:02;;;;;;;58.10;23.33;;;2.40;99.90;;;;;;4438434;27;658919;-74
2024/01/18 12:45:51;;;;;;;59.13;22.83;;;2.50;99.90;;;;;;4435688;27;659348;-74
2024/01/18 12:48:39;;;;;;;58.20;21.87;;;2.50;99.90;;;;;;4431592;27;657565;-75
2024/01/18 12:51:27;;;;;;;52.47;20.60;;;2.40;99.90;;;;;;4461312;28;657596;-77
2024/01/18 12:54:14;;;;;;;68.53;25.07;;;2.40;99.90;;;;;;4429275;28;659217;-75
2024/01/18 12:57:04;;;;;;;60.30;23.07;;;2.30;99.90;;;;;;4451502;28;657769;-76
2024/01/18 12:59:52;;;;;;;65.75;23.10;;;2.40;99.90;;;;;;4433819;28;658145;-77
2024/01/18 13:02:41;;;;;;;64.60;24.03;;;2.50;99.90;;;;;;4436304;28;657989;-75
2024/01/18 13:05:30;;;;;;;60.23;22.93;;;2.50;99.90;;;;;;4434555;28;657641;-76
2024/01/18 13:08:17;;;;;;;58.60;23.30;;;2.50;99.90;;;;;;4449282;28;657931;-74
2024/01/18 13:11:05;;;;;;;59.40;24.47;;;2.40;99.90;;;;;;4457273;28;658682;-76
2024/01/18 13:13:52;;;;;;;57.47;23.10;;;2.50;99.90;;;;;;4457975;28;658282;-74
2024/01/18 13:16:42;;;;;;;65.63;24.20;;;2.50;99.90;;;;;;4462378;28;658682;-74
2024/01/18 13:19:29;;;;;;;67.67;22.97;;;2.40;99.90;;;;;;4436220;28;658375;-76
2024/01/18 13:22:18;;;;;;;70.67;24.07;;;2.40;99.90;;;;;;4451738;28;657364;-76
2024/01/18 13:25:06;;;;;;;57.40;21.97;;;2.30;99.90;;;;;;4439435;28;658490;-74
2024/01/18 13:27:53;;;;;;;60.33;23.23;;;2.40;99.90;;;;;;4432697;28;658356;-78
2024/01/18 13:30:40;;;;;;;63.47;23.30;;;2.40;99.90;;;;;;4452768;28;658141;-76
2024/01/18 13:33:28;;;;;;;55.97;20.73;;;2.40;99.90;;;;;;4433590;28;658481;-75
2024/01/18 13:36:15;;;;;;;55.23;20.37;;;2.30;99.90;;;;;;4456889;28;658986;-75
2024/01/18 13:39:06;;;;;;;63.60;19.87;;;2.30;99.90;;;;;;4434917;28;657894;-74
2024/01/18 13:41:53;;;;;;;50.27;19.20;;;2.20;99.90;;;;;;4432101;28;658981;-76
2024/01/18 13:44:40;;;;;;;41.63;17.58;;;2.20;99.90;;;;;;4447179;28;658244;-76
2024/01/18 13:47:28;;;;;;;53.70;19.37;;;2.30;99.90;;;;;;4435719;28;657463;-75
2024/01/18 13:50:15;;;;;;;45.63;18.93;;;2.20;99.90;;;;;;4448271;28;659198;-74
2024/01/18 13:53:03;;;;;;;40.90;17.17;;;2.20;99.90;;;;;;4428707;28;658134;-74
2024/01/18 13:55:53;;;;;;;44.97;19.47;;;2.20;99.90;;;;;;4455778;28;658191;-76
2024/01/18 13:58:40;;;;;;;46.80;18.83;;;2.20;99.90;;;;;;4431179;28;658787;-76
2024/01/18 14:01:27;;;;;;;41.85;18.00;;;2.20;99.90;;;;;;4435160;28;658265;-74
2024/01/18 14:04:15;;;;;;;51.03;23.00;;;2.20;99.90;;;;;;4453204;28;658344;-76
2024/01/18 14:07:02;;;;;;;54.67;23.33;;;2.20;99.90;;;;;;4451065;28;658441;-76
2024/01/18 14:09:49;;;;;;;55.17;22.97;;;2.20;99.90;;;;;;4429147;28;658816;-76
2024/01/18 14:12:38;;;;;;;70.10;27.77;;;2.20;99.90;;;;;;4439017;28;657964;-76